createdAt,value
2017-12-09T00:01:53.104Z,-1.60
2017-12-09T00:04:19.433Z,-1.57
2017-12-09T00:06:45.995Z,-1.57
2017-12-09T00:09:12.272Z,-1.57
2017-12-09T00:11:38.656Z,-1.60
2017-12-09T00:14:05.365Z,-1.66
2017-12-09T00:16:32.088Z,-1.71
2017-12-09T00:18:59.146Z,-1.73
2017-12-09T00:21:25.627Z,-1.70
2017-12-09T00:23:52.072Z,-1.65
2017-12-09T00:26:18.494Z,-1.60
2017-12-09T00:28:44.964Z,-1.52
2017-12-09T00:31:11.376Z,-1.45
2017-12-09T00:33:37.550Z,-1.36
2017-12-09T00:36:03.626Z,-1.27
2017-12-09T00:38:29.689Z,-1.15
2017-12-09T00:40:55.746Z,-1.04
2017-12-09T00:43:21.841Z,-0.93
2017-12-09T00:45:47.899Z,-0.85
2017-12-09T00:48:13.910Z,-0.79
2017-12-09T00:50:39.947Z,-0.73
2017-12-09T00:53:06.138Z,-0.68
2017-12-09T00:55:32.287Z,-0.63
2017-12-09T00:57:58.465Z,-0.61
2017-12-09T01:00:24.561Z,-0.59
2017-12-09T01:02:50.602Z,-0.59
2017-12-09T01:05:16.782Z,-0.62
2017-12-09T01:07:42.850Z,-0.63
2017-12-09T01:10:08.937Z,-0.65
2017-12-09T01:12:34.989Z,-0.64
2017-12-09T01:15:00.985Z,-0.64
2017-12-09T01:17:39.553Z,-0.61
2017-12-09T01:20:05.716Z,-0.58
2017-12-09T01:22:31.713Z,-0.55
2017-12-09T01:24:57.790Z,-0.53
2017-12-09T01:27:23.890Z,-0.53
2017-12-09T01:29:49.994Z,-0.52
2017-12-09T01:32:16.022Z,-0.53
2017-12-09T01:34:42.101Z,-0.54
2017-12-09T01:37:08.255Z,-0.57
2017-12-09T01:39:34.306Z,-0.61
2017-12-09T01:42:00.758Z,-0.62
2017-12-09T01:44:26.859Z,-0.64
2017-12-09T01:46:52.911Z,-0.68
2017-12-09T01:49:19.008Z,-0.74
2017-12-09T01:51:45.173Z,-0.84
2017-12-09T01:54:11.266Z,-0.94
2017-12-09T01:56:37.375Z,-1.03
2017-12-09T01:59:03.527Z,-1.09
2017-12-09T02:01:29.594Z,-1.05
2017-12-09T02:03:55.664Z,-0.96
2017-12-09T02:06:21.822Z,-0.86
2017-12-09T02:08:47.914Z,-0.78
2017-12-09T02:11:13.968Z,-0.72
2017-12-09T02:13:40.011Z,-0.69
2017-12-09T02:16:06.158Z,-0.66
2017-12-09T02:18:32.214Z,-0.63
2017-12-09T02:20:58.437Z,-0.61
2017-12-09T02:23:24.510Z,-0.60
2017-12-09T02:25:50.688Z,-0.60
2017-12-09T02:28:16.860Z,-0.62
2017-12-09T02:30:43.960Z,-0.64
2017-12-09T02:33:10.196Z,-0.63
2017-12-09T02:35:36.357Z,-0.61
2017-12-09T02:38:02.650Z,-0.61
2017-12-09T02:40:28.804Z,-0.64
2017-12-09T02:42:55.033Z,-0.65
2017-12-09T02:45:21.131Z,-0.66
2017-12-09T02:47:47.190Z,-0.69
2017-12-09T02:50:13.414Z,-0.74
2017-12-09T02:52:39.629Z,-0.72
2017-12-09T02:55:06.037Z,-0.77
2017-12-09T02:57:32.153Z,-0.75
2017-12-09T02:59:58.415Z,-0.75
2017-12-09T03:02:24.615Z,-0.71
2017-12-09T03:04:50.736Z,-0.67
2017-12-09T03:07:16.941Z,-0.66
2017-12-09T03:09:43.097Z,-0.66
2017-12-09T03:12:10.005Z,-0.69
2017-12-09T03:14:36.337Z,-0.75
2017-12-09T03:17:02.674Z,-0.83
2017-12-09T03:19:29.918Z,-0.91
2017-12-09T03:21:56.109Z,-1.05
2017-12-09T03:24:22.282Z,-1.19
2017-12-09T03:26:48.344Z,-1.27
2017-12-09T03:29:14.490Z,-1.30
2017-12-09T03:31:40.642Z,-1.41
2017-12-09T03:34:06.882Z,-1.51
2017-12-09T03:36:33.112Z,-1.59
2017-12-09T03:38:59.224Z,-1.72
2017-12-09T03:41:25.496Z,-1.86
2017-12-09T03:43:51.609Z,-2.03
2017-12-09T03:46:17.984Z,-2.20
2017-12-09T03:48:44.037Z,-2.34
2017-12-09T03:51:10.090Z,-2.44
2017-12-09T03:53:36.182Z,-2.50
2017-12-09T03:56:02.235Z,-2.60
2017-12-09T03:58:28.338Z,-2.71
2017-12-09T04:00:54.469Z,-2.79
2017-12-09T04:03:21.426Z,-2.86
2017-12-09T04:05:47.632Z,-2.85
2017-12-09T04:08:13.797Z,-2.85
2017-12-09T04:10:39.848Z,-2.85
2017-12-09T04:13:05.924Z,-2.89
2017-12-09T04:15:32.064Z,-2.93
2017-12-09T04:17:58.208Z,-2.96
2017-12-09T04:20:24.339Z,-2.98
2017-12-09T04:22:50.653Z,-2.97
2017-12-09T04:25:17.661Z,-2.94
2017-12-09T04:27:43.815Z,-2.87
2017-12-09T04:30:09.959Z,-2.82
2017-12-09T04:32:36.199Z,-2.74
2017-12-09T04:35:02.381Z,-2.68
2017-12-09T04:37:28.535Z,-2.59
2017-12-09T04:39:54.645Z,-2.51
2017-12-09T04:42:20.793Z,-2.47
2017-12-09T04:44:46.914Z,-2.45
2017-12-09T04:47:12.975Z,-2.41
2017-12-09T04:49:39.104Z,-2.38
2017-12-09T04:52:05.166Z,-2.31
2017-12-09T04:54:31.299Z,-2.25
2017-12-09T04:56:57.458Z,-2.17
2017-12-09T04:59:23.478Z,-2.11
2017-12-09T05:01:50.255Z,-2.05
2017-12-09T05:04:16.339Z,-1.98
2017-12-09T05:06:42.441Z,-1.94
2017-12-09T05:09:08.612Z,-1.90
2017-12-09T05:11:34.826Z,-1.87
2017-12-09T05:14:00.933Z,-1.84
2017-12-09T05:16:27.169Z,-1.82
2017-12-09T05:18:53.300Z,-1.80
2017-12-09T05:21:19.518Z,-1.76
2017-12-09T05:23:45.756Z,-1.74
2017-12-09T05:26:11.819Z,-1.72
2017-12-09T05:28:38.698Z,-1.70
2017-12-09T05:31:04.862Z,-1.71
2017-12-09T05:33:31.918Z,-1.73
2017-12-09T05:35:57.952Z,-1.77
2017-12-09T05:38:24.142Z,-1.82
2017-12-09T05:40:50.313Z,-1.91
2017-12-09T05:43:16.374Z,-2.00
2017-12-09T05:45:42.503Z,-2.10
2017-12-09T05:48:08.682Z,-2.21
2017-12-09T05:50:34.887Z,-2.30
2017-12-09T05:53:01.014Z,-2.39
2017-12-09T05:55:27.125Z,-2.49
2017-12-09T05:57:53.329Z,-2.60
2017-12-09T06:00:19.547Z,-2.70
2017-12-09T06:02:45.807Z,-2.75
2017-12-09T06:05:11.899Z,-2.78
2017-12-09T06:07:38.081Z,-2.84
2017-12-09T06:10:04.168Z,-2.95
2017-12-09T06:12:30.325Z,-3.03
2017-12-09T06:14:56.542Z,-3.10
2017-12-09T06:17:22.661Z,-3.15
2017-12-09T06:19:48.881Z,-3.21
2017-12-09T06:22:14.982Z,-3.26
2017-12-09T06:24:41.151Z,-3.31
2017-12-09T06:27:07.243Z,-3.34
2017-12-09T06:29:33.305Z,-3.30
2017-12-09T06:31:59.571Z,-3.24
2017-12-09T06:34:26.004Z,-3.15
2017-12-09T06:36:52.071Z,-3.05
2017-12-09T06:39:18.189Z,-2.94
2017-12-09T06:41:44.362Z,-2.87
2017-12-09T06:44:10.461Z,-2.80
2017-12-09T06:46:36.697Z,-2.74
2017-12-09T06:49:03.003Z,-2.69
2017-12-09T06:51:29.543Z,-2.64
2017-12-09T06:53:55.598Z,-2.57
2017-12-09T06:56:21.682Z,-2.51
2017-12-09T06:58:48.012Z,-2.47
2017-12-09T07:01:14.283Z,-2.43
2017-12-09T07:03:40.409Z,-2.44
2017-12-09T07:06:06.647Z,-2.42
2017-12-09T07:08:32.859Z,-2.40
2017-12-09T07:10:59.068Z,-2.36
2017-12-09T07:13:25.288Z,-2.29
2017-12-09T07:15:51.455Z,-2.21
2017-12-09T07:18:17.549Z,-2.15
2017-12-09T07:20:43.622Z,-2.12
2017-12-09T07:23:09.723Z,-2.11
2017-12-09T07:25:35.934Z,-2.11
2017-12-09T07:28:02.526Z,-2.08
2017-12-09T07:30:28.591Z,-2.11
2017-12-09T07:32:55.297Z,-2.11
2017-12-09T07:35:21.673Z,-2.07
2017-12-09T07:37:48.131Z,-2.02
2017-12-09T07:40:14.267Z,-1.94
2017-12-09T07:42:40.418Z,-1.86
2017-12-09T07:45:07.062Z,-1.79
2017-12-09T07:47:33.109Z,-1.69
2017-12-09T07:49:59.301Z,-1.63
2017-12-09T07:52:25.413Z,-1.55
2017-12-09T07:54:52.390Z,-1.44
2017-12-09T07:57:18.867Z,-1.39
2017-12-09T07:59:45.420Z,-1.37
2017-12-09T08:02:11.708Z,-1.38
2017-12-09T08:04:38.231Z,-1.35
2017-12-09T08:07:05.755Z,-1.34
2017-12-09T08:12:24.474Z,-1.31
2017-12-09T08:14:50.806Z,-1.29
2017-12-09T08:17:17.324Z,-1.25
2017-12-09T08:19:43.813Z,-1.18
2017-12-09T08:22:10.297Z,-1.07
2017-12-09T08:24:36.537Z,-0.96
2017-12-09T08:27:03.114Z,-0.90
2017-12-09T08:29:29.206Z,-0.83
2017-12-09T08:31:59.278Z,-0.76
2017-12-09T08:34:25.612Z,-0.64
2017-12-09T08:36:51.998Z,-0.49
2017-12-09T08:39:18.408Z,-0.34
2017-12-09T08:41:45.642Z,-0.19
2017-12-09T08:44:12.923Z,0.00
2017-12-09T08:46:40.787Z,0.14
2017-12-09T08:49:07.434Z,0.27
2017-12-09T08:51:37.244Z,0.34
2017-12-09T08:54:05.632Z,0.43
2017-12-09T08:56:32.587Z,0.45
2017-12-09T08:58:59.359Z,0.44
2017-12-09T09:01:29.650Z,0.39
2017-12-09T09:03:56.337Z,0.39
2017-12-09T09:06:24.180Z,0.37
2017-12-09T09:08:53.494Z,0.40
2017-12-09T09:11:20.703Z,0.39
2017-12-09T09:13:48.788Z,0.43
2017-12-09T09:16:15.670Z,0.47
2017-12-09T09:18:44.828Z,0.53
2017-12-09T09:21:11.297Z,0.54
2017-12-09T09:23:37.537Z,0.51
2017-12-09T09:26:05.693Z,0.49
2017-12-09T09:28:41.244Z,0.48
2017-12-09T09:31:14.946Z,0.45
2017-12-09T09:33:42.425Z,0.59
2017-12-09T09:36:09.212Z,0.84
2017-12-09T09:38:42.637Z,1.13
2017-12-09T09:41:09.183Z,1.41
2017-12-09T09:43:39.444Z,1.58
2017-12-09T09:46:06.844Z,1.68
2017-12-09T09:48:33.183Z,1.70
2017-12-09T09:51:00.371Z,1.47
2017-12-09T09:53:27.245Z,1.24
2017-12-09T09:55:55.702Z,1.09
2017-12-09T09:58:22.325Z,1.00
2017-12-09T10:00:49.589Z,0.92
2017-12-09T10:03:16.222Z,0.96
2017-12-09T10:05:46.571Z,0.91
2017-12-09T10:08:13.171Z,0.93
2017-12-09T10:10:39.322Z,1.00
2017-12-09T10:13:07.566Z,1.02
2017-12-09T10:15:33.710Z,0.87
2017-12-09T10:18:00.076Z,0.90
2017-12-09T10:20:26.372Z,1.16
2017-12-09T10:22:55.162Z,1.31
2017-12-09T10:25:22.704Z,1.50
2017-12-09T10:27:49.056Z,1.78
2017-12-09T10:30:15.548Z,1.98
2017-12-09T10:32:45.604Z,2.11
2017-12-09T10:35:12.163Z,2.33
2017-12-09T10:37:38.547Z,2.62
2017-12-09T10:40:16.301Z,2.98
2017-12-09T10:42:43.397Z,3.34
2017-12-09T10:45:09.934Z,3.45
2017-12-09T10:47:37.738Z,3.32
2017-12-09T10:50:05.400Z,3.13
2017-12-09T10:52:36.193Z,2.97
2017-12-09T10:55:04.289Z,2.85
2017-12-09T11:00:10.315Z,2.75
2017-12-09T11:07:11.416Z,2.51
2017-12-09T11:09:39.581Z,2.63
2017-12-09T11:12:08.025Z,2.84
2017-12-09T11:14:37.800Z,3.20
2017-12-09T11:17:06.326Z,3.27
2017-12-09T11:27:16.496Z,3.46
2017-12-09T11:29:45.260Z,3.78
2017-12-09T11:32:14.651Z,3.82
2017-12-09T11:34:42.115Z,3.62
2017-12-09T11:37:08.197Z,3.33
2017-12-09T11:39:34.385Z,2.95
2017-12-09T11:42:00.648Z,2.64
2017-12-09T11:44:26.917Z,2.31
2017-12-09T11:46:53.527Z,1.94
2017-12-09T11:49:19.630Z,1.74
2017-12-09T11:51:45.788Z,1.65
2017-12-09T11:54:12.038Z,1.58
2017-12-09T11:56:38.382Z,1.55
2017-12-09T11:59:04.519Z,1.55
2017-12-09T12:01:30.700Z,1.57
2017-12-09T12:03:56.834Z,1.58
2017-12-09T12:06:23.234Z,1.71
2017-12-09T12:08:50.527Z,2.00
2017-12-09T12:11:16.993Z,2.45
2017-12-09T12:13:43.273Z,2.92
2017-12-09T12:16:09.669Z,3.50
2017-12-09T12:18:37.009Z,3.73
2017-12-09T12:21:03.381Z,4.16
2017-12-09T12:26:01.909Z,4.60
2017-12-09T12:28:31.830Z,4.57
2017-12-09T12:30:59.212Z,4.49
2017-12-09T12:33:27.366Z,4.39
2017-12-09T12:35:54.509Z,4.15
2017-12-09T12:38:21.857Z,3.94
2017-12-09T12:40:50.081Z,3.77
2017-12-09T12:43:20.165Z,3.53
2017-12-09T12:45:47.677Z,3.26
2017-12-09T12:50:48.492Z,2.83
2017-12-09T12:58:27.842Z,2.89
2017-12-09T13:00:55.831Z,2.87
2017-12-09T13:03:23.570Z,2.87
2017-12-09T13:05:51.997Z,2.82
2017-12-09T13:08:18.865Z,2.76
2017-12-09T13:10:47.369Z,2.75
2017-12-09T13:13:14.662Z,2.63
2017-12-09T13:15:41.890Z,2.53
2017-12-09T13:18:08.844Z,2.47
2017-12-09T13:20:35.860Z,2.54
2017-12-09T13:23:03.726Z,2.63
2017-12-09T13:25:31.770Z,2.66
2017-12-09T13:27:59.995Z,2.62
2017-12-09T13:30:27.961Z,2.50
2017-12-09T13:32:56.720Z,2.31
2017-12-09T13:35:24.405Z,2.21
2017-12-09T13:37:53.616Z,2.12
2017-12-09T13:40:24.208Z,2.19
2017-12-09T13:45:23.236Z,2.12
2017-12-09T13:47:51.176Z,1.88
2017-12-09T13:50:18.444Z,1.73
2017-12-09T13:52:45.356Z,1.54
2017-12-09T13:55:12.756Z,1.39
2017-12-09T13:57:39.692Z,1.19
2017-12-09T14:00:06.851Z,1.06
2017-12-09T14:02:34.291Z,0.92
2017-12-09T14:05:01.122Z,0.82
2017-12-09T14:07:27.993Z,0.80
2017-12-09T14:10:11.740Z,0.78
2017-12-09T14:12:40.151Z,0.63
2017-12-09T14:15:07.067Z,0.47
2017-12-09T14:22:40.936Z,0.46
2017-12-09T14:25:08.432Z,0.60
2017-12-09T14:27:35.454Z,0.65
2017-12-09T14:30:02.852Z,0.66
2017-12-09T14:35:03.801Z,0.80
2017-12-09T14:37:29.937Z,0.82
2017-12-09T14:39:56.253Z,0.80
2017-12-09T14:42:22.591Z,0.77
2017-12-09T14:44:49.966Z,0.76
2017-12-09T14:47:16.701Z,0.71
2017-12-09T14:49:43.021Z,0.66
2017-12-09T14:52:09.395Z,0.64
2017-12-09T14:54:36.963Z,0.61
2017-12-09T14:57:03.284Z,0.59
2017-12-09T14:59:29.706Z,0.57
2017-12-09T15:01:56.260Z,0.60
2017-12-09T15:04:22.593Z,0.67
2017-12-09T15:06:48.770Z,0.64
2017-12-09T15:09:15.234Z,0.53
2017-12-09T15:11:42.118Z,0.32
2017-12-09T15:14:08.430Z,0.18
2017-12-09T15:16:34.744Z,0.03
2017-12-09T15:19:01.332Z,-0.14
2017-12-09T15:21:27.797Z,-0.27
2017-12-09T15:23:54.192Z,-0.40
2017-12-09T15:26:20.796Z,-0.50
2017-12-09T15:28:47.159Z,-0.58
2017-12-09T15:31:13.672Z,-0.68
2017-12-09T15:33:40.096Z,-0.80
2017-12-09T15:36:06.538Z,-0.99
2017-12-09T15:38:33.056Z,-1.20
2017-12-09T15:40:59.581Z,-1.36
2017-12-09T15:43:25.703Z,-1.50
2017-12-09T15:45:52.033Z,-1.64
2017-12-09T15:48:18.346Z,-1.75
2017-12-09T15:50:44.825Z,-1.84
2017-12-09T15:53:10.995Z,-1.93
2017-12-09T15:55:37.696Z,-1.97
2017-12-09T15:58:03.979Z,-2.01
2017-12-09T16:00:30.179Z,-2.11
2017-12-09T16:02:56.357Z,-2.26
2017-12-09T16:05:22.554Z,-2.40
2017-12-09T16:07:48.674Z,-2.55
2017-12-09T16:10:14.842Z,-2.71
2017-12-09T16:12:41.003Z,-2.85
2017-12-09T16:15:07.139Z,-2.98
2017-12-09T16:17:34.357Z,-3.11
2017-12-09T16:20:00.922Z,-3.19
2017-12-09T16:22:27.568Z,-3.23
2017-12-09T16:24:54.215Z,-3.24
2017-12-09T16:27:20.574Z,-3.32
2017-12-09T16:29:47.000Z,-3.43
2017-12-09T16:32:13.458Z,-3.53
2017-12-09T16:34:40.028Z,-3.63
2017-12-09T16:37:07.104Z,-3.70
2017-12-09T16:39:33.510Z,-3.77
2017-12-09T16:41:59.718Z,-3.84
2017-12-09T16:44:26.381Z,-3.89
2017-12-09T16:46:52.656Z,-3.94
2017-12-09T16:49:19.208Z,-3.94
2017-12-09T16:51:45.568Z,-3.92
2017-12-09T16:54:11.933Z,-3.88
2017-12-09T16:56:38.094Z,-3.84
2017-12-09T16:59:04.766Z,-3.79
2017-12-09T17:01:32.290Z,-3.85
2017-12-09T17:03:59.241Z,-3.92
2017-12-09T17:06:26.228Z,-4.01
2017-12-09T17:08:52.797Z,-4.11
2017-12-09T17:11:19.340Z,-4.17
2017-12-09T17:13:45.455Z,-4.29
2017-12-09T17:16:11.755Z,-4.36
2017-12-09T17:18:37.854Z,-4.40
2017-12-09T17:21:03.943Z,-4.44
2017-12-09T17:23:30.032Z,-4.49
2017-12-09T17:25:56.237Z,-4.55
2017-12-09T17:28:22.355Z,-4.56
2017-12-09T17:30:48.625Z,-4.57
2017-12-09T17:33:15.433Z,-4.60
2017-12-09T17:35:41.672Z,-4.61
2017-12-09T17:38:07.794Z,-4.60
2017-12-09T17:40:33.949Z,-4.59
2017-12-09T17:43:00.259Z,-4.57
2017-12-09T17:45:27.295Z,-4.62
2017-12-09T17:47:56.796Z,-4.69
2017-12-09T17:50:22.950Z,-4.77
2017-12-09T17:52:49.982Z,-4.83
2017-12-09T17:55:16.644Z,-4.88
2017-12-09T17:57:42.846Z,-4.91
2017-12-09T18:00:09.452Z,-4.96
2017-12-09T18:02:35.545Z,-4.96
2017-12-09T18:05:01.861Z,-4.94
2017-12-09T18:07:27.999Z,-4.93
2017-12-09T18:09:54.208Z,-4.90
2017-12-09T18:12:21.040Z,-4.89
2017-12-09T18:14:47.366Z,-4.86
2017-12-09T18:17:13.939Z,-4.74
2017-12-09T18:19:40.823Z,-4.71
2017-12-09T18:22:07.128Z,-4.77
2017-12-09T18:24:34.137Z,-4.82
2017-12-09T18:27:00.288Z,-4.89
2017-12-09T18:29:27.723Z,-4.95
2017-12-09T18:31:53.946Z,-5.00
2017-12-09T18:34:20.309Z,-5.06
2017-12-09T18:36:46.460Z,-5.13
2017-12-09T18:39:12.661Z,-5.21
2017-12-09T18:41:38.849Z,-5.25
2017-12-09T18:44:06.414Z,-5.26
2017-12-09T18:46:32.665Z,-5.23
2017-12-09T18:48:58.979Z,-5.16
2017-12-09T18:51:25.914Z,-5.20
2017-12-09T18:53:52.069Z,-5.21
2017-12-09T18:56:18.299Z,-5.26
2017-12-09T18:58:44.439Z,-5.31
2017-12-09T19:01:11.731Z,-5.40
2017-12-09T19:03:38.523Z,-5.52
2017-12-09T19:06:06.269Z,-5.59
2017-12-09T19:08:33.786Z,-5.56
2017-12-09T19:11:00.229Z,-5.51
2017-12-09T19:13:26.357Z,-5.51
2017-12-09T19:15:52.491Z,-5.52
2017-12-09T19:18:18.825Z,-5.53
2017-12-09T19:20:45.051Z,-5.49
2017-12-09T19:23:11.382Z,-5.43
2017-12-09T19:25:43.738Z,-5.41
2017-12-09T19:28:09.918Z,-5.40
2017-12-09T19:30:36.207Z,-5.40
2017-12-09T19:33:02.442Z,-5.43
2017-12-09T19:35:28.488Z,-5.40
2017-12-09T19:37:54.677Z,-5.33
2017-12-09T19:40:20.906Z,-5.27
2017-12-09T19:42:47.062Z,-5.27
2017-12-09T19:45:13.272Z,-5.32
2017-12-09T19:47:39.540Z,-5.37
2017-12-09T19:50:05.878Z,-5.39
2017-12-09T19:52:32.169Z,-5.30
2017-12-09T19:54:58.356Z,-5.15
2017-12-09T19:57:24.636Z,-5.16
2017-12-09T19:59:51.117Z,-5.23
2017-12-09T20:02:17.354Z,-5.30
2017-12-09T20:04:43.617Z,-5.26
2017-12-09T20:07:09.876Z,-5.26
2017-12-09T20:09:36.092Z,-5.31
2017-12-09T20:12:02.198Z,-5.29
2017-12-09T20:14:28.557Z,-5.27
2017-12-09T20:16:54.625Z,-5.23
2017-12-09T20:19:20.788Z,-5.14
2017-12-09T20:21:47.001Z,-5.08
2017-12-09T20:24:13.072Z,-4.95
2017-12-09T20:26:39.400Z,-4.82
2017-12-09T20:29:05.765Z,-4.79
2017-12-09T20:31:32.007Z,-4.78
2017-12-09T20:33:59.225Z,-4.83
2017-12-09T20:36:25.568Z,-4.89
2017-12-09T20:38:52.649Z,-4.93
2017-12-09T20:41:18.936Z,-4.95
2017-12-09T20:43:45.186Z,-4.95
2017-12-09T20:46:11.401Z,-4.93
2017-12-09T20:48:38.146Z,-4.87
2017-12-09T20:51:04.685Z,-4.84
2017-12-09T20:53:31.103Z,-4.80
2017-12-09T20:55:57.364Z,-4.85
2017-12-09T20:58:23.805Z,-4.94
2017-12-09T21:00:50.320Z,-5.00
2017-12-09T21:03:17.061Z,-5.01
2017-12-09T21:05:43.696Z,-5.04
2017-12-09T21:08:10.382Z,-5.06
2017-12-09T21:10:36.466Z,-5.02
2017-12-09T21:13:02.769Z,-4.99
2017-12-09T21:15:29.117Z,-5.00
2017-12-09T21:17:55.353Z,-5.06
2017-12-09T21:20:21.489Z,-5.17
2017-12-09T21:22:47.790Z,-5.24
2017-12-09T21:25:14.452Z,-5.28
2017-12-09T21:27:40.834Z,-5.31
2017-12-09T21:30:06.974Z,-5.29
2017-12-09T21:32:33.098Z,-5.36
2017-12-09T21:34:59.415Z,-5.48
2017-12-09T21:37:26.873Z,-5.60
2017-12-09T21:39:53.152Z,-5.71
2017-12-09T21:42:19.262Z,-5.75
2017-12-09T21:44:45.375Z,-5.76
2017-12-09T21:47:11.556Z,-5.81
2017-12-09T21:49:37.670Z,-5.86
2017-12-09T21:52:03.884Z,-5.91
2017-12-09T21:54:30.003Z,-5.96
2017-12-09T21:56:56.191Z,-6.02
2017-12-09T21:59:22.455Z,-6.07
2017-12-09T22:01:49.806Z,-6.05
2017-12-09T22:04:15.961Z,-6.09
2017-12-09T22:06:42.109Z,-6.11
2017-12-09T22:09:08.201Z,-6.11
2017-12-09T22:11:35.239Z,-6.16
2017-12-09T22:14:01.381Z,-6.15
2017-12-09T22:16:27.589Z,-6.17
2017-12-09T22:18:53.723Z,-6.23
2017-12-09T22:21:19.959Z,-6.32
2017-12-09T22:23:46.339Z,-6.38
2017-12-09T22:26:12.475Z,-6.43
2017-12-09T22:28:38.659Z,-6.51
2017-12-09T22:31:05.002Z,-6.58
2017-12-09T22:33:31.083Z,-6.61
2017-12-09T22:35:57.147Z,-6.64
2017-12-09T22:38:24.413Z,-6.68
2017-12-09T22:40:50.511Z,-6.67
2017-12-09T22:43:16.616Z,-6.53
2017-12-09T22:45:42.943Z,-6.53
2017-12-09T22:48:09.288Z,-6.57
2017-12-09T22:50:35.741Z,-6.55
2017-12-09T22:53:01.946Z,-6.50
2017-12-09T22:55:28.317Z,-6.52
2017-12-09T22:57:54.748Z,-6.53
2017-12-09T23:00:22.896Z,-6.52
2017-12-09T23:02:48.991Z,-6.48
2017-12-09T23:05:15.124Z,-6.44
2017-12-09T23:07:41.259Z,-6.47
2017-12-09T23:10:07.333Z,-6.52
2017-12-09T23:12:33.527Z,-6.59
2017-12-09T23:14:59.716Z,-6.68
2017-12-09T23:17:25.865Z,-6.75
2017-12-09T23:19:52.018Z,-6.83
2017-12-09T23:22:18.052Z,-6.84
2017-12-09T23:24:44.146Z,-6.87
2017-12-09T23:27:10.333Z,-6.80
2017-12-09T23:29:36.541Z,-6.76
2017-12-09T23:32:02.650Z,-6.74
2017-12-09T23:34:28.720Z,-6.62
2017-12-09T23:36:54.940Z,-6.53
2017-12-09T23:39:21.158Z,-6.47
2017-12-09T23:41:54.162Z,-6.41
2017-12-09T23:44:20.500Z,-6.35
2017-12-09T23:46:46.719Z,-6.27
2017-12-09T23:49:12.948Z,-6.20
2017-12-09T23:51:39.208Z,-6.12
2017-12-09T23:54:05.768Z,-6.10
2017-12-09T23:56:32.366Z,-6.09
2017-12-09T23:58:59.701Z,-6.08
